sensor_id;sensor_type;location;lat;lon;timestamp;P1;durP1;ratioP1;P2;durP2;ratioP2
66739;SDS011;53653;52.188;8.602;2023-08-06T00:02:03;23.10;;;11.07;;
66739;SDS011;53653;52.188;8.602;2023-08-06T00:04:29;25.70;;;11.33;;
66739;SDS011;53653;52.188;8.602;2023-08-06T00:06:54;25.83;;;11.40;;
66739;SDS011;53653;52.188;8.602;2023-08-06T00:09:20;24.73;;;12.17;;
66739;SDS011;53653;52.188;8.602;2023-08-06T00:11:45;24.27;;;11.70;;
66739;SDS011;53653;52.188;8.602;2023-08-06T00:14:12;25.33;;;12.93;;
66739;SDS011;53653;52.188;8.602;2023-08-06T00:16:40;25.85;;;12.65;;
66739;SDS011;53653;52.188;8.602;2023-08-06T00:19:08;28.00;;;12.10;;
66739;SDS011;53653;52.188;8.602;2023-08-06T00:21:33;25.50;;;12.03;;
66739;SDS011;53653;52.188;8.602;2023-08-06T00:23:59;25.13;;;11.73;;
66739;SDS011;53653;52.188;8.602;2023-08-06T00:26:24;27.20;;;12.33;;
66739;SDS011;53653;52.188;8.602;2023-08-06T00:28:50;25.83;;;12.07;;
66739;SDS011;53653;52.188;8.602;2023-08-06T00:31:15;22.45;;;10.50;;
66739;SDS011;53653;52.188;8.602;2023-08-06T00:33:41;23.40;;;11.00;;
66739;SDS011;53653;52.188;8.602;2023-08-06T00:36:06;23.23;;;10.67;;
66739;SDS011;53653;52.188;8.602;2023-08-06T00:38:32;18.97;;;9.57;;
66739;SDS011;53653;52.188;8.602;2023-08-06T00:40:57;20.03;;;10.00;;
66739;SDS011;53653;52.188;8.602;2023-08-06T00:43:23;19.97;;;10.03;;
66739;SDS011;53653;52.188;8.602;2023-08-06T00:45:48;22.20;;;9.33;;
66739;SDS011;53653;52.188;8.602;2023-08-06T00:48:14;20.15;;;9.48;;
66739;SDS011;53653;52.188;8.602;2023-08-06T00:50:40;20.52;;;9.50;;
66739;SDS011;53653;52.188;8.602;2023-08-06T00:53:06;18.53;;;9.07;;
66739;SDS011;53653;52.188;8.602;2023-08-06T00:55:31;21.30;;;9.00;;
66739;SDS011;53653;52.188;8.602;2023-08-06T00:57:58;17.02;;;8.20;;
66739;SDS011;53653;52.188;8.602;2023-08-06T01:00:25;18.20;;;9.07;;
66739;SDS011;53653;52.188;8.602;2023-08-06T01:02:51;15.55;;;7.85;;
66739;SDS011;53653;52.188;8.602;2023-08-06T01:05:17;17.23;;;6.97;;
66739;SDS011;53653;52.188;8.602;2023-08-06T01:12:42;13.07;;;6.45;;
66739;SDS011;53653;52.188;8.602;2023-08-06T01:15:17;16.90;;;6.88;;
66739;SDS011;53653;52.188;8.602;2023-08-06T01:17:46;12.10;;;6.45;;
66739;SDS011;53653;52.188;8.602;2023-08-06T01:20:11;12.40;;;6.30;;
66739;SDS011;53653;52.188;8.602;2023-08-06T01:22:37;13.03;;;6.13;;
66739;SDS011;53653;52.188;8.602;2023-08-06T01:25:02;16.67;;;6.00;;
66739;SDS011;53653;52.188;8.602;2023-08-06T01:27:28;13.47;;;6.13;;
66739;SDS011;53653;52.188;8.602;2023-08-06T01:30:16;11.50;;;5.70;;
66739;SDS011;53653;52.188;8.602;2023-08-06T01:32:44;13.57;;;6.38;;
66739;SDS011;53653;52.188;8.602;2023-08-06T01:35:11;12.90;;;6.10;;
66739;SDS011;53653;52.188;8.602;2023-08-06T01:37:39;13.93;;;7.10;;
66739;SDS011;53653;52.188;8.602;2023-08-06T01:40:12;11.13;;;5.87;;
66739;SDS011;53653;52.188;8.602;2023-08-06T01:42:39;11.15;;;5.57;;
66739;SDS011;53653;52.188;8.602;2023-08-06T01:45:07;10.38;;;5.65;;
66739;SDS011;53653;52.188;8.602;2023-08-06T01:47:34;12.93;;;5.45;;
66739;SDS011;53653;52.188;8.602;2023-08-06T01:50:00;12.00;;;5.72;;
66739;SDS011;53653;52.188;8.602;2023-08-06T01:52:25;11.07;;;5.40;;
66739;SDS011;53653;52.188;8.602;2023-08-06T01:54:51;11.27;;;5.78;;
66739;SDS011;53653;52.188;8.602;2023-08-06T01:57:17;12.47;;;5.53;;
66739;SDS011;53653;52.188;8.602;2023-08-06T01:59:42;13.80;;;5.80;;
66739;SDS011;53653;52.188;8.602;2023-08-06T02:02:08;11.30;;;6.07;;
66739;SDS011;53653;52.188;8.602;2023-08-06T02:04:33;13.20;;;6.03;;
66739;SDS011;53653;52.188;8.602;2023-08-06T02:06:59;11.23;;;5.67;;
66739;SDS011;53653;52.188;8.602;2023-08-06T02:09:24;12.17;;;5.87;;
66739;SDS011;53653;52.188;8.602;2023-08-06T02:11:51;12.00;;;6.38;;
66739;SDS011;53653;52.188;8.602;2023-08-06T02:14:16;12.85;;;5.93;;
66739;SDS011;53653;52.188;8.602;2023-08-06T02:16:42;10.70;;;5.67;;
66739;SDS011;53653;52.188;8.602;2023-08-06T02:19:07;11.50;;;5.80;;
66739;SDS011;53653;52.188;8.602;2023-08-06T02:21:33;14.20;;;5.95;;
66739;SDS011;53653;52.188;8.602;2023-08-06T02:23:58;12.97;;;6.17;;
66739;SDS011;53653;52.188;8.602;2023-08-06T02:26:24;12.63;;;6.17;;
66739;SDS011;53653;52.188;8.602;2023-08-06T02:28:49;15.55;;;7.35;;
66739;SDS011;53653;52.188;8.602;2023-08-06T02:31:15;13.83;;;6.97;;
66739;SDS011;53653;52.188;8.602;2023-08-06T02:33:40;13.00;;;6.33;;
66739;SDS011;53653;52.188;8.602;2023-08-06T02:36:06;13.93;;;6.17;;
66739;SDS011;53653;52.188;8.602;2023-08-06T02:38:32;14.50;;;6.18;;
66739;SDS011;53653;52.188;8.602;2023-08-06T02:40:58;14.25;;;5.70;;
66739;SDS011;53653;52.188;8.602;2023-08-06T02:43:23;12.40;;;6.17;;
66739;SDS011;53653;52.188;8.602;2023-08-06T02:45:49;12.48;;;5.80;;
66739;SDS011;53653;52.188;8.602;2023-08-06T02:48:15;14.47;;;6.57;;
66739;SDS011;53653;52.188;8.602;2023-08-06T02:50:43;13.38;;;5.90;;
66739;SDS011;53653;52.188;8.602;2023-08-06T02:53:09;13.38;;;5.70;;
66739;SDS011;53653;52.188;8.602;2023-08-06T02:55:36;12.73;;;5.78;;
66739;SDS011;53653;52.188;8.602;2023-08-06T02:58:06;11.87;;;5.60;;
66739;SDS011;53653;52.188;8.602;2023-08-06T03:00:35;14.35;;;5.70;;
66739;SDS011;53653;52.188;8.602;2023-08-06T03:03:02;14.38;;;5.72;;
66739;SDS011;53653;52.188;8.602;2023-08-06T03:05:36;12.90;;;6.20;;
66739;SDS011;53653;52.188;8.602;2023-08-06T03:08:02;11.37;;;5.53;;
66739;SDS011;53653;52.188;8.602;2023-08-06T03:10:29;12.43;;;6.13;;
66739;SDS011;53653;52.188;8.602;2023-08-06T03:12:57;11.15;;;5.93;;
66739;SDS011;53653;52.188;8.602;2023-08-06T03:15:23;13.80;;;6.17;;
66739;SDS011;53653;52.188;8.602;2023-08-06T03:17:50;14.07;;;7.28;;
66739;SDS011;53653;52.188;8.602;2023-08-06T03:20:19;14.25;;;6.60;;
66739;SDS011;53653;52.188;8.602;2023-08-06T03:22:44;15.17;;;6.20;;
66739;SDS011;53653;52.188;8.602;2023-08-06T03:25:10;14.30;;;7.22;;
66739;SDS011;53653;52.188;8.602;2023-08-06T03:27:36;14.97;;;6.80;;
66739;SDS011;53653;52.188;8.602;2023-08-06T03:30:02;13.20;;;7.10;;
66739;SDS011;53653;52.188;8.602;2023-08-06T03:32:28;14.60;;;6.83;;
66739;SDS011;53653;52.188;8.602;2023-08-06T03:34:54;15.63;;;6.93;;
66739;SDS011;53653;52.188;8.602;2023-08-06T03:37:21;15.90;;;6.90;;
66739;SDS011;53653;52.188;8.602;2023-08-06T03:39:49;16.42;;;6.40;;
66739;SDS011;53653;52.188;8.602;2023-08-06T03:42:15;15.87;;;6.47;;
66739;SDS011;53653;52.188;8.602;2023-08-06T03:44:40;13.98;;;6.47;;
66739;SDS011;53653;52.188;8.602;2023-08-06T03:47:08;15.67;;;6.77;;
66739;SDS011;53653;52.188;8.602;2023-08-06T03:49:34;13.07;;;6.68;;
66739;SDS011;53653;52.188;8.602;2023-08-06T03:51:59;15.23;;;7.03;;
66739;SDS011;53653;52.188;8.602;2023-08-06T03:54:25;15.67;;;6.80;;
66739;SDS011;53653;52.188;8.602;2023-08-06T03:56:50;13.45;;;6.70;;
66739;SDS011;53653;52.188;8.602;2023-08-06T03:59:16;11.50;;;6.20;;
66739;SDS011;53653;52.188;8.602;2023-08-06T04:01:41;13.02;;;6.53;;
66739;SDS011;53653;52.188;8.602;2023-08-06T04:04:07;13.13;;;6.70;;
66739;SDS011;53653;52.188;8.602;2023-08-06T04:06:32;15.57;;;7.07;;
66739;SDS011;53653;52.188;8.602;2023-08-06T04:08:58;14.07;;;6.43;;
66739;SDS011;53653;52.188;8.602;2023-08-06T04:11:23;11.88;;;6.00;;
66739;SDS011;53653;52.188;8.602;2023-08-06T04:13:49;13.77;;;6.63;;
66739;SDS011;53653;52.188;8.602;2023-08-06T04:16:16;17.13;;;6.25;;
66739;SDS011;53653;52.188;8.602;2023-08-06T04:18:41;12.70;;;5.73;;
66739;SDS011;53653;52.188;8.602;2023-08-06T04:21:07;17.08;;;6.32;;
66739;SDS011;53653;52.188;8.602;2023-08-06T04:23:32;13.93;;;6.07;;
66739;SDS011;53653;52.188;8.602;2023-08-06T04:26:02;15.38;;;6.70;;
66739;SDS011;53653;52.188;8.602;2023-08-06T04:28:31;12.35;;;5.90;;
66739;SDS011;53653;52.188;8.602;2023-08-06T04:30:58;12.37;;;5.90;;
66739;SDS011;53653;52.188;8.602;2023-08-06T04:33:24;13.73;;;6.30;;
66739;SDS011;53653;52.188;8.602;2023-08-06T04:35:56;14.93;;;6.93;;
66739;SDS011;53653;52.188;8.602;2023-08-06T04:38:23;14.10;;;6.85;;
66739;SDS011;53653;52.188;8.602;2023-08-06T04:40:53;14.40;;;6.88;;
66739;SDS011;53653;52.188;8.602;2023-08-06T04:43:19;13.90;;;6.80;;
66739;SDS011;53653;52.188;8.602;2023-08-06T04:45:48;12.87;;;6.37;;
66739;SDS011;53653;52.188;8.602;2023-08-06T04:48:14;14.00;;;6.57;;
66739;SDS011;53653;52.188;8.602;2023-08-06T04:50:44;13.00;;;6.78;;
66739;SDS011;53653;52.188;8.602;2023-08-06T04:53:13;15.20;;;6.75;;
66739;SDS011;53653;52.188;8.602;2023-08-06T04:55:39;15.03;;;6.77;;
66739;SDS011;53653;52.188;8.602;2023-08-06T04:58:04;12.60;;;6.35;;
66739;SDS011;53653;52.188;8.602;2023-08-06T05:00:30;12.48;;;6.65;;
66739;SDS011;53653;52.188;8.602;2023-08-06T05:02:56;16.30;;;6.57;;
66739;SDS011;53653;52.188;8.602;2023-08-06T05:05:22;12.88;;;6.57;;
66739;SDS011;53653;52.188;8.602;2023-08-06T05:07:48;13.00;;;6.70;;
66739;SDS011;53653;52.188;8.602;2023-08-06T05:10:14;14.82;;;6.90;;
66739;SDS011;53653;52.188;8.602;2023-08-06T05:12:40;14.05;;;7.10;;
66739;SDS011;53653;52.188;8.602;2023-08-06T05:15:06;13.03;;;6.83;;
66739;SDS011;53653;52.188;8.602;2023-08-06T05:17:32;11.57;;;6.25;;
66739;SDS011;53653;52.188;8.602;2023-08-06T05:19:57;11.70;;;5.87;;
66739;SDS011;53653;52.188;8.602;2023-08-06T05:22:23;11.77;;;5.82;;
66739;SDS011;53653;52.188;8.602;2023-08-06T05:24:48;9.83;;;5.03;;
66739;SDS011;53653;52.188;8.602;2023-08-06T05:27:14;11.90;;;5.43;;
66739;SDS011;53653;52.188;8.602;2023-08-06T05:29:39;11.00;;;5.35;;
66739;SDS011;53653;52.188;8.602;2023-08-06T05:32:05;12.27;;;4.80;;
66739;SDS011;53653;52.188;8.602;2023-08-06T05:34:31;9.93;;;4.97;;
66739;SDS011;53653;52.188;8.602;2023-08-06T05:36:56;10.87;;;5.57;;
66739;SDS011;53653;52.188;8.602;2023-08-06T05:39:22;11.07;;;5.33;;
66739;SDS011;53653;52.188;8.602;2023-08-06T05:41:47;14.02;;;5.30;;
66739;SDS011;53653;52.188;8.602;2023-08-06T05:44:13;11.57;;;5.77;;
66739;SDS011;53653;52.188;8.602;2023-08-06T05:46:38;12.38;;;5.97;;
66739;SDS011;53653;52.188;8.602;2023-08-06T05:49:04;11.90;;;5.97;;
66739;SDS011;53653;52.188;8.602;2023-08-06T05:51:30;15.18;;;6.00;;
66739;SDS011;53653;52.188;8.602;2023-08-06T05:53:55;12.37;;;5.93;;
66739;SDS011;53653;52.188;8.602;2023-08-06T05:56:21;12.53;;;5.40;;
66739;SDS011;53653;52.188;8.602;2023-08-06T05:58:46;9.68;;;5.15;;
66739;SDS011;53653;52.188;8.602;2023-08-06T06:01:12;9.93;;;5.60;;
66739;SDS011;53653;52.188;8.602;2023-08-06T06:03:38;9.32;;;5.30;;
66739;SDS011;53653;52.188;8.602;2023-08-06T06:06:03;9.30;;;5.20;;
66739;SDS011;53653;52.188;8.602;2023-08-06T06:08:29;10.40;;;5.30;;
66739;SDS011;53653;52.188;8.602;2023-08-06T06:10:54;8.70;;;4.80;;
66739;SDS011;53653;52.188;8.602;2023-08-06T06:13:20;9.30;;;4.83;;
66739;SDS011;53653;52.188;8.602;2023-08-06T06:15:48;11.97;;;5.00;;
66739;SDS011;53653;52.188;8.602;2023-08-06T06:18:14;8.75;;;4.32;;
66739;SDS011;53653;52.188;8.602;2023-08-06T06:20:40;9.43;;;4.47;;
66739;SDS011;53653;52.188;8.602;2023-08-06T06:23:05;9.90;;;4.47;;
66739;SDS011;53653;52.188;8.602;2023-08-06T06:25:30;11.30;;;4.73;;
66739;SDS011;53653;52.188;8.602;2023-08-06T06:27:56;10.40;;;4.60;;
66739;SDS011;53653;52.188;8.602;2023-08-06T06:30:21;8.98;;;4.43;;
66739;SDS011;53653;52.188;8.602;2023-08-06T06:32:47;11.57;;;4.37;;
66739;SDS011;53653;52.188;8.602;2023-08-06T06:35:12;7.90;;;4.43;;
66739;SDS011;53653;52.188;8.602;2023-08-06T06:37:38;8.55;;;4.45;;
66739;SDS011;53653;52.188;8.602;2023-08-06T06:40:03;9.87;;;4.30;;
66739;SDS011;53653;52.188;8.602;2023-08-06T06:42:30;8.95;;;4.15;;
66739;SDS011;53653;52.188;8.602;2023-08-06T06:44:59;8.18;;;4.50;;
66739;SDS011;53653;52.188;8.602;2023-08-06T06:47:25;8.37;;;4.17;;
66739;SDS011;53653;52.188;8.602;2023-08-06T06:49:50;9.32;;;4.25;;
66739;SDS011;53653;52.188;8.602;2023-08-06T06:52:16;9.17;;;4.33;;
66739;SDS011;53653;52.188;8.602;2023-08-06T06:54:41;7.70;;;4.00;;
66739;SDS011;53653;52.188;8.602;2023-08-06T06:57:07;9.57;;;4.30;;
66739;SDS011;53653;52.188;8.602;2023-08-06T06:59:32;12.33;;;4.37;;
66739;SDS011;53653;52.188;8.602;2023-08-06T07:01:58;8.33;;;4.53;;
66739;SDS011;53653;52.188;8.602;2023-08-06T07:04:24;9.47;;;4.83;;
66739;SDS011;53653;52.188;8.602;2023-08-06T07:06:50;10.02;;;4.75;;
66739;SDS011;53653;52.188;8.602;2023-08-06T07:09:17;8.32;;;4.50;;
66739;SDS011;53653;52.188;8.602;2023-08-06T07:11:43;8.95;;;4.32;;
66739;SDS011;53653;52.188;8.602;2023-08-06T07:14:09;16.30;;;4.30;;
66739;SDS011;53653;52.188;8.602;2023-08-06T07:16:35;7.63;;;4.00;;
66739;SDS011;53653;52.188;8.602;2023-08-06T07:19:01;7.85;;;3.72;;
66739;SDS011;53653;52.188;8.602;2023-08-06T07:21:26;8.83;;;3.80;;
66739;SDS011;53653;52.188;8.602;2023-08-06T07:23:52;8.63;;;4.30;;
66739;SDS011;53653;52.188;8.602;2023-08-06T07:26:18;9.43;;;4.07;;
66739;SDS011;53653;52.188;8.602;2023-08-06T07:28:43;8.45;;;4.10;;
66739;SDS011;53653;52.188;8.602;2023-08-06T07:31:09;9.02;;;4.00;;
66739;SDS011;53653;52.188;8.602;2023-08-06T07:33:35;7.93;;;3.80;;
66739;SDS011;53653;52.188;8.602;2023-08-06T07:36:07;9.82;;;4.55;;
66739;SDS011;53653;52.188;8.602;2023-08-06T07:38:33;8.13;;;4.10;;
66739;SDS011;53653;52.188;8.602;2023-08-06T07:41:01;11.23;;;4.20;;
66739;SDS011;53653;52.188;8.602;2023-08-06T07:43:27;7.93;;;3.80;;
66739;SDS011;53653;52.188;8.602;2023-08-06T07:45:53;8.93;;;4.03;;
66739;SDS011;53653;52.188;8.602;2023-08-06T07:48:18;9.32;;;4.30;;
66739;SDS011;53653;52.188;8.602;2023-08-06T07:50:44;9.53;;;4.10;;
66739;SDS011;53653;52.188;8.602;2023-08-06T07:53:15;7.72;;;3.92;;
66739;SDS011;53653;52.188;8.602;2023-08-06T07:55:41;7.13;;;3.28;;
66739;SDS011;53653;52.188;8.602;2023-08-06T07:58:06;6.90;;;3.30;;
66739;SDS011;53653;52.188;8.602;2023-08-06T08:00:33;10.48;;;3.78;;
66739;SDS011;53653;52.188;8.602;2023-08-06T08:02:58;7.50;;;3.80;;
66739;SDS011;53653;52.188;8.602;2023-08-06T08:05:24;8.00;;;3.90;;
66739;SDS011;53653;52.188;8.602;2023-08-06T08:07:50;7.43;;;3.77;;
66739;SDS011;53653;52.188;8.602;2023-08-06T08:10:15;8.70;;;4.90;;
66739;SDS011;53653;52.188;8.602;2023-08-06T08:12:41;7.53;;;3.77;;
66739;SDS011;53653;52.188;8.602;2023-08-06T08:15:07;8.20;;;3.38;;
66739;SDS011;53653;52.188;8.602;2023-08-06T08:17:33;8.13;;;3.45;;
66739;SDS011;53653;52.188;8.602;2023-08-06T08:19:59;7.57;;;3.97;;
66739;SDS011;53653;52.188;8.602;2023-08-06T08:22:25;8.02;;;3.50;;
66739;SDS011;53653;52.188;8.602;2023-08-06T08:24:51;8.68;;;3.78;;
66739;SDS011;53653;52.188;8.602;2023-08-06T08:27:17;6.50;;;3.37;;
66739;SDS011;53653;52.188;8.602;2023-08-06T08:29:42;7.78;;;3.40;;
66739;SDS011;53653;52.188;8.602;2023-08-06T08:32:08;8.00;;;3.50;;
66739;SDS011;53653;52.188;8.602;2023-08-06T08:34:34;8.27;;;3.45;;
66739;SDS011;53653;52.188;8.602;2023-08-06T08:36:59;7.50;;;3.80;;
66739;SDS011;53653;52.188;8.602;2023-08-06T08:39:25;7.25;;;3.53;;
66739;SDS011;53653;52.188;8.602;2023-08-06T08:41:51;7.00;;;3.63;;
66739;SDS011;53653;52.188;8.602;2023-08-06T08:44:17;7.68;;;4.32;;
66739;SDS011;53653;52.188;8.602;2023-08-06T08:46:43;7.47;;;3.60;;
66739;SDS011;53653;52.188;8.602;2023-08-06T08:49:10;10.40;;;5.68;;
66739;SDS011;53653;52.188;8.602;2023-08-06T08:51:36;8.70;;;4.10;;
66739;SDS011;53653;52.188;8.602;2023-08-06T08:54:03;6.25;;;3.13;;
66739;SDS011;53653;52.188;8.602;2023-08-06T08:56:29;6.72;;;3.13;;
66739;SDS011;53653;52.188;8.602;2023-08-06T08:58:56;7.60;;;3.13;;
66739;SDS011;53653;52.188;8.602;2023-08-06T09:01:22;7.43;;;3.43;;
66739;SDS011;53653;52.188;8.602;2023-08-06T09:03:48;10.15;;;3.72;;
66739;SDS011;53653;52.188;8.602;2023-08-06T09:06:14;6.40;;;2.85;;
66739;SDS011;53653;52.188;8.602;2023-08-06T09:08:46;6.13;;;2.88;;
66739;SDS011;53653;52.188;8.602;2023-08-06T09:11:16;7.35;;;3.50;;
66739;SDS011;53653;52.188;8.602;2023-08-06T09:13:45;6.63;;;3.37;;
66739;SDS011;53653;52.188;8.602;2023-08-06T09:16:12;8.30;;;3.03;;
66739;SDS011;53653;52.188;8.602;2023-08-06T09:18:38;7.05;;;3.50;;
66739;SDS011;53653;52.188;8.602;2023-08-06T09:21:05;10.07;;;3.58;;
66739;SDS011;53653;52.188;8.602;2023-08-06T09:23:31;7.43;;;3.60;;
66739;SDS011;53653;52.188;8.602;2023-08-06T09:25:58;7.70;;;3.50;;
66739;SDS011;53653;52.188;8.602;2023-08-06T09:28:30;7.05;;;3.33;;
66739;SDS011;53653;52.188;8.602;2023-08-06T09:31:03;8.23;;;3.23;;
66739;SDS011;53653;52.188;8.602;2023-08-06T09:33:29;8.10;;;3.30;;
66739;SDS011;53653;52.188;8.602;2023-08-06T09:35:54;7.00;;;3.20;;
66739;SDS011;53653;52.188;8.602;2023-08-06T09:38:20;6.88;;;3.20;;
66739;SDS011;53653;52.188;8.602;2023-08-06T09:40:46;7.50;;;3.87;;
66739;SDS011;53653;52.188;8.602;2023-08-06T09:43:12;7.22;;;3.72;;
66739;SDS011;53653;52.188;8.602;2023-08-06T09:45:39;9.70;;;3.30;;
66739;SDS011;53653;52.188;8.602;2023-08-06T09:48:05;8.93;;;3.20;;
66739;SDS011;53653;52.188;8.602;2023-08-06T09:50:33;6.57;;;2.97;;
66739;SDS011;53653;52.188;8.602;2023-08-06T09:53:03;6.63;;;3.03;;
66739;SDS011;53653;52.188;8.602;2023-08-06T09:55:30;8.65;;;3.80;;
66739;SDS011;53653;52.188;8.602;2023-08-06T09:57:57;11.40;;;5.22;;
66739;SDS011;53653;52.188;8.602;2023-08-06T10:00:24;7.57;;;3.35;;
66739;SDS011;53653;52.188;8.602;2023-08-06T10:02:50;8.45;;;4.10;;
66739;SDS011;53653;52.188;8.602;2023-08-06T10:05:20;7.13;;;3.57;;
66739;SDS011;53653;52.188;8.602;2023-08-06T10:07:46;10.27;;;2.53;;
66739;SDS011;53653;52.188;8.602;2023-08-06T10:10:13;6.85;;;2.95;;
66739;SDS011;53653;52.188;8.602;2023-08-06T10:12:51;6.10;;;2.57;;
66739;SDS011;53653;52.188;8.602;2023-08-06T10:15:30;5.47;;;2.45;;
66739;SDS011;53653;52.188;8.602;2023-08-06T10:17:57;6.88;;;2.55;;
66739;SDS011;53653;52.188;8.602;2023-08-06T10:20:24;7.35;;;3.17;;
66739;SDS011;53653;52.188;8.602;2023-08-06T10:23:03;6.80;;;2.70;;
66739;SDS011;53653;52.188;8.602;2023-08-06T10:25:31;7.90;;;3.20;;
66739;SDS011;53653;52.188;8.602;2023-08-06T10:28:01;6.07;;;2.88;;
66739;SDS011;53653;52.188;8.602;2023-08-06T10:30:33;7.40;;;3.47;;
66739;SDS011;53653;52.188;8.602;2023-08-06T10:33:06;6.55;;;2.63;;
66739;SDS011;53653;52.188;8.602;2023-08-06T10:35:38;7.60;;;3.30;;
66739;SDS011;53653;52.188;8.602;2023-08-06T10:38:17;5.40;;;2.70;;
66739;SDS011;53653;52.188;8.602;2023-08-06T10:41:05;8.32;;;3.85;;
66739;SDS011;53653;52.188;8.602;2023-08-06T10:43:34;10.32;;;5.18;;
66739;SDS011;53653;52.188;8.602;2023-08-06T10:46:03;8.30;;;2.80;;
66739;SDS011;53653;52.188;8.602;2023-08-06T10:48:35;7.57;;;4.60;;
66739;SDS011;53653;52.188;8.602;2023-08-06T10:51:02;6.63;;;3.20;;
66739;SDS011;53653;52.188;8.602;2023-08-06T10:53:28;6.22;;;2.70;;
66739;SDS011;53653;52.188;8.602;2023-08-06T10:55:54;7.22;;;3.20;;
66739;SDS011;53653;52.188;8.602;2023-08-06T10:58:20;5.90;;;3.00;;
66739;SDS011;53653;52.188;8.602;2023-08-06T11:00:45;7.23;;;2.87;;
66739;SDS011;53653;52.188;8.602;2023-08-06T11:03:11;6.88;;;3.50;;
66739;SDS011;53653;52.188;8.602;2023-08-06T11:05:37;5.93;;;2.50;;
66739;SDS011;53653;52.188;8.602;2023-08-06T11:08:03;6.73;;;3.13;;
66739;SDS011;53653;52.188;8.602;2023-08-06T11:10:29;8.75;;;3.42;;
66739;SDS011;53653;52.188;8.602;2023-08-06T11:12:55;6.03;;;2.73;;
66739;SDS011;53653;52.188;8.602;2023-08-06T11:15:26;5.40;;;2.50;;
66739;SDS011;53653;52.188;8.602;2023-08-06T11:17:52;5.97;;;2.80;;
66739;SDS011;53653;52.188;8.602;2023-08-06T11:20:18;7.47;;;2.67;;
66739;SDS011;53653;52.188;8.602;2023-08-06T11:22:46;5.65;;;2.40;;
66739;SDS011;53653;52.188;8.602;2023-08-06T11:25:12;7.70;;;2.90;;
66739;SDS011;53653;52.188;8.602;2023-08-06T11:27:38;7.00;;;2.95;;
66739;SDS011;53653;52.188;8.602;2023-08-06T11:30:04;6.47;;;2.40;;
66739;SDS011;53653;52.188;8.602;2023-08-06T11:32:30;5.72;;;2.72;;
66739;SDS011;53653;52.188;8.602;2023-08-06T11:34:56;6.03;;;2.72;;
66739;SDS011;53653;52.188;8.602;2023-08-06T11:37:22;6.93;;;2.58;;
66739;SDS011;53653;52.188;8.602;2023-08-06T11:39:49;6.57;;;3.05;;
66739;SDS011;53653;52.188;8.602;2023-08-06T11:42:15;5.07;;;2.40;;
66739;SDS011;53653;52.188;8.602;2023-08-06T11:44:41;6.63;;;2.40;;
66739;SDS011;53653;52.188;8.602;2023-08-06T11:47:12;5.45;;;2.55;;
66739;SDS011;53653;52.188;8.602;2023-08-06T11:49:40;8.00;;;3.10;;
66739;SDS011;53653;52.188;8.602;2023-08-06T11:52:08;6.00;;;2.95;;
66739;SDS011;53653;52.188;8.602;2023-08-06T11:54:45;8.68;;;2.90;;
66739;SDS011;53653;52.188;8.602;2023-08-06T11:57:36;5.47;;;2.13;;
66739;SDS011;53653;52.188;8.602;2023-08-06T12:02:43;6.00;;;2.43;;
66739;SDS011;53653;52.188;8.602;2023-08-06T12:05:11;7.63;;;3.35;;
66739;SDS011;53653;52.188;8.602;2023-08-06T12:07:38;5.88;;;2.42;;
66739;SDS011;53653;52.188;8.602;2023-08-06T12:10:04;5.18;;;2.40;;
66739;SDS011;53653;52.188;8.602;2023-08-06T12:12:31;5.97;;;2.92;;
66739;SDS011;53653;52.188;8.602;2023-08-06T12:14:56;5.30;;;2.20;;
66739;SDS011;53653;52.188;8.602;2023-08-06T12:17:25;6.45;;;2.72;;
66739;SDS011;53653;52.188;8.602;2023-08-06T12:19:51;6.32;;;2.50;;
66739;SDS011;53653;52.188;8.602;2023-08-06T12:22:17;5.87;;;2.50;;
66739;SDS011;53653;52.188;8.602;2023-08-06T12:24:44;6.82;;;2.38;;
66739;SDS011;53653;52.188;8.602;2023-08-06T12:27:11;6.03;;;2.45;;
66739;SDS011;53653;52.188;8.602;2023-08-06T12:29:39;5.10;;;2.30;;
66739;SDS011;53653;52.188;8.602;2023-08-06T12:32:06;6.10;;;2.30;;
66739;SDS011;53653;52.188;8.602;2023-08-06T12:34:31;6.45;;;2.40;;
66739;SDS011;53653;52.188;8.602;2023-08-06T12:36:57;7.83;;;2.50;;
66739;SDS011;53653;52.188;8.602;2023-08-06T12:39:22;5.20;;;2.30;;
66739;SDS011;53653;52.188;8.602;2023-08-06T12:41:48;5.63;;;2.30;;
66739;SDS011;53653;52.188;8.602;2023-08-06T12:44:14;5.63;;;2.37;;
66739;SDS011;53653;52.188;8.602;2023-08-06T12:46:39;5.60;;;2.20;;
66739;SDS011;53653;52.188;8.602;2023-08-06T12:49:05;7.47;;;2.50;;
66739;SDS011;53653;52.188;8.602;2023-08-06T12:51:30;4.90;;;2.10;;
66739;SDS011;53653;52.188;8.602;2023-08-06T12:53:59;4.83;;;2.30;;
66739;SDS011;53653;52.188;8.602;2023-08-06T12:56:24;5.57;;;2.50;;
66739;SDS011;53653;52.188;8.602;2023-08-06T12:58:50;6.50;;;2.50;;
66739;SDS011;53653;52.188;8.602;2023-08-06T13:01:15;5.10;;;2.25;;
66739;SDS011;53653;52.188;8.602;2023-08-06T13:03:41;5.90;;;2.43;;
66739;SDS011;53653;52.188;8.602;2023-08-06T13:06:06;5.67;;;2.27;;
66739;SDS011;53653;52.188;8.602;2023-08-06T13:08:34;5.07;;;1.98;;
66739;SDS011;53653;52.188;8.602;2023-08-06T13:10:59;5.57;;;2.33;;
66739;SDS011;53653;52.188;8.602;2023-08-06T13:13:25;6.30;;;2.30;;
66739;SDS011;53653;52.188;8.602;2023-08-06T13:15:52;5.75;;;2.50;;
66739;SDS011;53653;52.188;8.602;2023-08-06T13:18:17;4.57;;;2.00;;
66739;SDS011;53653;52.188;8.602;2023-08-06T13:20:43;4.97;;;2.30;;
66739;SDS011;53653;52.188;8.602;2023-08-06T13:23:09;5.40;;;2.50;;
66739;SDS011;53653;52.188;8.602;2023-08-06T13:25:34;7.13;;;2.40;;
66739;SDS011;53653;52.188;8.602;2023-08-06T13:28:02;6.40;;;2.47;;
66739;SDS011;53653;52.188;8.602;2023-08-06T13:30:28;6.03;;;2.40;;
66739;SDS011;53653;52.188;8.602;2023-08-06T13:32:54;6.25;;;2.78;;
66739;SDS011;53653;52.188;8.602;2023-08-06T13:35:22;5.80;;;2.25;;
66739;SDS011;53653;52.188;8.602;2023-08-06T13:37:48;4.75;;;1.85;;
66739;SDS011;53653;52.188;8.602;2023-08-06T13:40:13;6.73;;;2.50;;
66739;SDS011;53653;52.188;8.602;2023-08-06T13:42:39;6.67;;;2.83;;
66739;SDS011;53653;52.188;8.602;2023-08-06T13:45:05;6.32;;;2.30;;
66739;SDS011;53653;52.188;8.602;2023-08-06T13:47:31;6.22;;;2.30;;
66739;SDS011;53653;52.188;8.602;2023-08-06T13:49:57;6.73;;;2.50;;
66739;SDS011;53653;52.188;8.602;2023-08-06T13:52:22;5.33;;;2.33;;
66739;SDS011;53653;52.188;8.602;2023-08-06T13:54:50;5.57;;;2.40;;
66739;SDS011;53653;52.188;8.602;2023-08-06T13:57:15;6.72;;;2.47;;
66739;SDS011;53653;52.188;8.602;2023-08-06T13:59:42;5.43;;;2.50;;
66739;SDS011;53653;52.188;8.602;2023-08-06T14:02:09;5.50;;;2.47;;
66739;SDS011;53653;52.188;8.602;2023-08-06T14:04:35;7.00;;;2.30;;
66739;SDS011;53653;52.188;8.602;2023-08-06T14:07:00;5.22;;;2.00;;
66739;SDS011;53653;52.188;8.602;2023-08-06T14:09:26;5.10;;;2.10;;
66739;SDS011;53653;52.188;8.602;2023-08-06T14:11:51;6.40;;;2.20;;
66739;SDS011;53653;52.188;8.602;2023-08-06T14:14:17;6.20;;;2.58;;
66739;SDS011;53653;52.188;8.602;2023-08-06T14:16:43;6.83;;;2.70;;
66739;SDS011;53653;52.188;8.602;2023-08-06T14:19:08;7.33;;;3.17;;
66739;SDS011;53653;52.188;8.602;2023-08-06T14:21:34;7.07;;;2.90;;
66739;SDS011;53653;52.188;8.602;2023-08-06T14:23:59;6.00;;;2.80;;
66739;SDS011;53653;52.188;8.602;2023-08-06T14:26:25;7.40;;;3.00;;
66739;SDS011;53653;52.188;8.602;2023-08-06T14:28:50;6.47;;;3.13;;
66739;SDS011;53653;52.188;8.602;2023-08-06T14:31:19;6.95;;;3.30;;
66739;SDS011;53653;52.188;8.602;2023-08-06T14:33:46;6.75;;;3.35;;
66739;SDS011;53653;52.188;8.602;2023-08-06T14:36:11;7.70;;;4.20;;
66739;SDS011;53653;52.188;8.602;2023-08-06T14:38:37;7.63;;;3.73;;
66739;SDS011;53653;52.188;8.602;2023-08-06T14:41:03;7.90;;;4.20;;
66739;SDS011;53653;52.188;8.602;2023-08-06T14:43:28;6.53;;;3.10;;
66739;SDS011;53653;52.188;8.602;2023-08-06T14:45:54;6.53;;;2.90;;